Time;durP1;ratioP1;P1;durP2;ratioP2;P2;SDS_P1;SDS_P2;PMS_P1;PMS_P2;Temp;Humidity;BMP_temperature;BMP_pressure;BME280_temperature;BME280_humidity;BME280_pressure;Samples;Min_cycle;Max_cycle;Signal;HPM_P1;HPM_P2
2022/11/26 00:01:03;;;;;;;44.97;12.90;;;;;;;;;;4966473;28;20044;-69
2022/11/26 00:03:29;;;;;;;42.15;12.02;;;;;;;;;;4964917;28;20031;-69
2022/11/26 00:05:56;;;;;;;51.13;12.02;;;;;;;;;;4960323;28;20037;-71
2022/11/26 00:08:27;;;;;;;41.63;11.43;;;;;;;;;;4963678;28;20054;-71
2022/11/26 00:10:53;;;;;;;43.53;12.48;;;;;;;;;;4970574;28;20399;-71
2022/11/26 00:13:21;;;;;;;46.78;11.68;;;;;;;;;;4968439;28;20034;-71
2022/11/26 00:15:48;;;;;;;48.90;11.77;;;;;;;;;;4965846;28;20039;-69
2022/11/26 00:18:14;;;;;;;59.97;13.00;;;;;;;;;;4952288;28;20053;-71
2022/11/26 00:20:40;;;;;;;55.25;12.27;;;;;;;;;;4966928;28;20046;-69
2022/11/26 00:23:07;;;;;;;57.30;12.15;;;;;;;;;;4963367;28;20090;-69
2022/11/26 00:25:38;;;;;;;56.50;12.48;;;;;;;;;;4961479;28;20400;-70
2022/11/26 00:28:18;;;;;;;46.30;13.63;;;;;;;;;;4966965;28;20037;-71
2022/11/26 00:30:44;;;;;;;48.25;12.13;;;;;;;;;;4967118;28;20078;-70
2022/11/26 00:33:11;;;;;;;53.67;11.70;;;;;;;;;;4965069;28;20579;-71
2022/11/26 00:35:37;;;;;;;35.83;10.50;;;;;;;;;;4960198;28;20420;-70
2022/11/26 00:38:03;;;;;;;49.17;11.57;;;;;;;;;;4964838;28;20035;-71
2022/11/26 00:40:31;;;;;;;46.35;11.70;;;;;;;;;;4963298;28;20042;-71
2022/11/26 00:42:57;;;;;;;48.47;12.18;;;;;;;;;;4964669;28;20031;-70
2022/11/26 00:45:25;;;;;;;56.13;12.20;;;;;;;;;;4953092;28;20030;-71
2022/11/26 00:47:51;;;;;;;57.70;11.90;;;;;;;;;;4977303;28;20484;-70
2022/11/26 00:50:18;;;;;;;44.75;11.48;;;;;;;;;;4971169;28;20040;-70
2022/11/26 00:52:45;;;;;;;43.17;13.20;;;;;;;;;;4964243;28;20038;-70
2022/11/26 00:55:18;;;;;;;38.33;11.95;;;;;;;;;;4964738;28;20035;-71
2022/11/26 00:57:44;;;;;;;53.63;13.57;;;;;;;;;;4963399;28;20041;-70
2022/11/26 01:00:17;;;;;;;50.45;12.95;;;;;;;;;;4942562;28;20031;-70
2022/11/26 01:02:44;;;;;;;68.82;12.38;;;;;;;;;;4961217;28;20511;-70
2022/11/26 01:05:10;;;;;;;56.58;15.10;;;;;;;;;;4961442;28;20370;-70
2022/11/26 01:07:36;;;;;;;52.80;13.88;;;;;;;;;;4942401;28;20507;-70
2022/11/26 01:10:03;;;;;;;53.67;12.65;;;;;;;;;;4964422;28;20034;-70
2022/11/26 01:12:29;;;;;;;52.30;13.68;;;;;;;;;;4967352;28;20550;-69
2022/11/26 01:14:55;;;;;;;51.35;12.55;;;;;;;;;;4961129;28;20062;-69
2022/11/26 01:17:21;;;;;;;45.10;13.65;;;;;;;;;;4963234;28;20058;-70
2022/11/26 01:19:47;;;;;;;57.33;14.60;;;;;;;;;;4965907;28;20045;-70
2022/11/26 01:22:19;;;;;;;64.18;14.70;;;;;;;;;;4966591;28;21247;-70
2022/11/26 01:24:45;;;;;;;57.83;13.68;;;;;;;;;;4965600;28;20023;-70
2022/11/26 01:27:12;;;;;;;50.78;15.32;;;;;;;;;;4962313;28;20045;-70
2022/11/26 01:29:38;;;;;;;39.65;13.70;;;;;;;;;;4962853;28;20042;-69
2022/11/26 01:32:04;;;;;;;51.83;14.77;;;;;;;;;;4959827;28;20071;-70
2022/11/26 01:34:30;;;;;;;54.22;15.07;;;;;;;;;;4964180;28;20101;-70
2022/11/26 01:36:56;;;;;;;48.05;14.13;;;;;;;;;;4948286;28;20035;-70
2022/11/26 01:39:23;;;;;;;52.90;14.68;;;;;;;;;;4965154;28;20062;-70
2022/11/26 01:41:52;;;;;;;73.60;16.27;;;;;;;;;;4960871;28;20035;-70
2022/11/26 01:44:20;;;;;;;49.28;15.57;;;;;;;;;;4960194;28;20038;-70
2022/11/26 01:46:46;;;;;;;58.58;15.65;;;;;;;;;;4962211;28;20031;-70
2022/11/26 01:49:22;;;;;;;71.07;16.48;;;;;;;;;;4965980;28;20118;-70
2022/11/26 01:52:08;;;;;;;45.38;15.13;;;;;;;;;;4965023;28;20035;-71
2022/11/26 01:54:36;;;;;;;55.38;15.88;;;;;;;;;;4965151;28;20447;-70
2022/11/26 01:57:22;;;;;;;58.33;15.75;;;;;;;;;;4964549;28;20026;-70
2022/11/26 01:59:53;;;;;;;55.35;16.73;;;;;;;;;;4967521;28;20055;-70
2022/11/26 02:02:23;;;;;;;48.35;16.05;;;;;;;;;;4967259;28;20034;-70
2022/11/26 02:05:09;;;;;;;59.63;16.17;;;;;;;;;;4968263;28;20052;-70
2022/11/26 02:07:36;;;;;;;65.25;18.20;;;;;;;;;;4961708;28;20038;-70
2022/11/26 02:10:02;;;;;;;50.47;18.52;;;;;;;;;;4964103;28;20031;-71
2022/11/26 02:12:28;;;;;;;49.15;16.63;;;;;;;;;;4968241;28;20070;-70
2022/11/26 02:14:55;;;;;;;68.18;19.27;;;;;;;;;;4968884;28;20046;-70
2022/11/26 02:17:29;;;;;;;58.67;18.55;;;;;;;;;;4971857;28;20043;-70
2022/11/26 02:20:09;;;;;;;68.03;19.17;;;;;;;;;;4970040;28;20034;-71
2022/11/26 02:22:47;;;;;;;65.03;19.15;;;;;;;;;;4950754;28;20039;-70
2022/11/26 02:25:19;;;;;;;58.95;19.17;;;;;;;;;;4967291;28;20110;-70
2022/11/26 02:27:48;;;;;;;72.40;19.30;;;;;;;;;;4969228;28;20174;-71
2022/11/26 02:30:15;;;;;;;57.75;20.42;;;;;;;;;;4967625;28;20026;-70
2022/11/26 02:32:42;;;;;;;53.13;19.83;;;;;;;;;;4966494;28;20082;-70
2022/11/26 02:35:24;;;;;;;50.75;19.58;;;;;;;;;;4961046;28;20062;-70
2022/11/26 02:37:59;;;;;;;52.28;18.13;;;;;;;;;;4969602;28;20114;-70
2022/11/26 02:40:26;;;;;;;56.30;18.40;;;;;;;;;;4965319;28;20034;-70
2022/11/26 02:42:52;;;;;;;56.88;19.77;;;;;;;;;;4965376;28;20041;-70
2022/11/26 02:45:23;;;;;;;57.80;20.33;;;;;;;;;;4964710;28;20034;-70
2022/11/26 02:47:52;;;;;;;58.33;19.58;;;;;;;;;;4963644;28;20411;-70
2022/11/26 02:50:23;;;;;;;57.08;19.80;;;;;;;;;;4962830;28;20030;-71
2022/11/26 02:52:50;;;;;;;60.70;19.70;;;;;;;;;;4968490;28;20571;-71
2022/11/26 02:55:18;;;;;;;61.58;19.52;;;;;;;;;;4969127;28;20127;-71
2022/11/26 02:57:46;;;;;;;63.08;20.15;;;;;;;;;;4949358;28;20054;-71
2022/11/26 03:00:13;;;;;;;62.90;20.77;;;;;;;;;;4968496;28;20458;-70
2022/11/26 03:03:00;;;;;;;51.50;19.80;;;;;;;;;;4968406;28;20388;-71
2022/11/26 03:05:27;;;;;;;65.32;20.60;;;;;;;;;;4946990;28;20046;-70
2022/11/26 03:07:53;;;;;;;63.13;21.85;;;;;;;;;;4969834;28;20034;-70
2022/11/26 03:10:24;;;;;;;65.10;21.15;;;;;;;;;;4969232;28;20023;-70
2022/11/26 03:12:50;;;;;;;53.90;22.33;;;;;;;;;;4973214;28;20034;-71
2022/11/26 03:15:16;;;;;;;60.03;21.80;;;;;;;;;;4967471;28;20030;-70
2022/11/26 03:17:43;;;;;;;55.95;21.25;;;;;;;;;;4967439;28;20117;-70
2022/11/26 03:20:09;;;;;;;67.60;21.75;;;;;;;;;;4968771;28;20034;-70
2022/11/26 03:22:35;;;;;;;59.25;22.55;;;;;;;;;;4966555;28;20214;-71
2022/11/26 03:25:01;;;;;;;60.75;22.90;;;;;;;;;;4948990;28;20023;-71
2022/11/26 03:27:27;;;;;;;64.65;21.98;;;;;;;;;;4966378;28;20264;-70
2022/11/26 03:29:53;;;;;;;77.25;23.55;;;;;;;;;;4964557;28;20097;-70
2022/11/26 03:32:20;;;;;;;82.15;24.58;;;;;;;;;;4968912;28;20137;-70
2022/11/26 03:34:46;;;;;;;70.55;22.50;;;;;;;;;;4965111;28;20775;-70
2022/11/26 03:37:12;;;;;;;63.80;21.05;;;;;;;;;;4945535;28;20061;-70
2022/11/26 03:39:38;;;;;;;63.28;22.90;;;;;;;;;;4965224;28;20035;-70
2022/11/26 03:42:04;;;;;;;67.65;22.15;;;;;;;;;;4968510;28;20049;-70
2022/11/26 03:44:30;;;;;;;74.28;23.25;;;;;;;;;;4963693;28;20489;-70
2022/11/26 03:46:56;;;;;;;53.92;21.98;;;;;;;;;;4970183;28;20089;-71
2022/11/26 03:49:22;;;;;;;53.20;21.45;;;;;;;;;;4967913;28;20078;-70
2022/11/26 03:51:48;;;;;;;66.53;23.98;;;;;;;;;;4967003;28;20095;-70
2022/11/26 03:54:14;;;;;;;62.10;21.85;;;;;;;;;;4966984;28;20433;-70
2022/11/26 03:56:40;;;;;;;60.78;22.10;;;;;;;;;;4965848;28;20039;-70
2022/11/26 03:59:06;;;;;;;66.90;21.00;;;;;;;;;;4962707;28;20127;-69
2022/11/26 04:01:32;;;;;;;66.25;21.08;;;;;;;;;;4965712;28;20141;-69
2022/11/26 04:03:58;;;;;;;57.25;21.20;;;;;;;;;;4964316;28;20023;-69
2022/11/26 04:06:24;;;;;;;70.88;20.35;;;;;;;;;;4961336;28;20121;-69
2022/11/26 04:08:50;;;;;;;55.40;19.75;;;;;;;;;;4967127;28;20035;-69
2022/11/26 04:11:16;;;;;;;55.78;21.88;;;;;;;;;;4968794;28;20065;-69
2022/11/26 04:13:43;;;;;;;62.20;21.90;;;;;;;;;;4969110;28;20034;-70
2022/11/26 04:16:09;;;;;;;64.28;21.40;;;;;;;;;;4966622;28;20027;-70
2022/11/26 04:18:35;;;;;;;69.57;21.95;;;;;;;;;;4966209;28;20402;-70
2022/11/26 04:21:01;;;;;;;65.38;21.92;;;;;;;;;;4964194;28;20027;-70
2022/11/26 04:23:27;;;;;;;61.00;21.58;;;;;;;;;;4962849;28;20070;-71
2022/11/26 04:25:53;;;;;;;81.47;22.33;;;;;;;;;;4966954;28;20503;-70
2022/11/26 04:28:19;;;;;;;68.95;22.80;;;;;;;;;;4930356;28;20027;-70
2022/11/26 04:30:45;;;;;;;62.20;22.45;;;;;;;;;;4961390;28;20030;-70
2022/11/26 04:33:11;;;;;;;75.93;24.40;;;;;;;;;;4967788;28;20043;-70
2022/11/26 04:35:37;;;;;;;74.55;23.88;;;;;;;;;;4962876;28;20049;-70
2022/11/26 04:38:04;;;;;;;69.47;23.30;;;;;;;;;;4964505;28;20034;-69
2022/11/26 04:40:30;;;;;;;76.32;24.90;;;;;;;;;;4964317;28;20389;-70
2022/11/26 04:42:56;;;;;;;72.85;23.95;;;;;;;;;;4946887;28;20038;-70
2022/11/26 04:45:22;;;;;;;64.35;23.75;;;;;;;;;;4947274;28;20309;-70
2022/11/26 04:47:48;;;;;;;70.03;21.77;;;;;;;;;;4961063;28;20042;-70
2022/11/26 04:50:14;;;;;;;56.20;22.65;;;;;;;;;;4961521;28;20031;-71
2022/11/26 04:52:40;;;;;;;69.38;23.08;;;;;;;;;;4965170;28;20511;-71
2022/11/26 04:55:06;;;;;;;68.53;23.13;;;;;;;;;;4966220;28;20042;-71
2022/11/26 04:57:33;;;;;;;68.47;24.92;;;;;;;;;;4967221;28;20583;-70
2022/11/26 04:59:59;;;;;;;67.57;24.45;;;;;;;;;;4966359;28;20038;-70
2022/11/26 05:02:26;;;;;;;70.95;25.48;;;;;;;;;;4963510;28;20046;-70
2022/11/26 05:04:52;;;;;;;75.35;24.70;;;;;;;;;;4965104;28;20716;-70
2022/11/26 05:07:18;;;;;;;64.28;24.05;;;;;;;;;;4952985;28;20035;-70
2022/11/26 05:09:44;;;;;;;73.20;26.63;;;;;;;;;;4968234;28;20035;-70
2022/11/26 05:12:11;;;;;;;68.40;25.67;;;;;;;;;;4978722;28;20069;-70
2022/11/26 05:14:37;;;;;;;71.63;26.25;;;;;;;;;;4953231;28;20039;-70
2022/11/26 05:17:03;;;;;;;77.07;25.60;;;;;;;;;;4966244;28;20163;-70
2022/11/26 05:19:29;;;;;;;68.50;25.90;;;;;;;;;;4970068;28;20031;-71
2022/11/26 05:21:56;;;;;;;68.13;24.88;;;;;;;;;;4965890;28;20062;-70
2022/11/26 05:24:22;;;;;;;76.47;25.58;;;;;;;;;;4963145;28;20109;-70
2022/11/26 05:26:48;;;;;;;72.68;26.58;;;;;;;;;;4964452;28;20027;-69
2022/11/26 05:29:15;;;;;;;87.38;26.92;;;;;;;;;;4965973;28;20068;-69
2022/11/26 05:31:41;;;;;;;74.30;26.67;;;;;;;;;;4969172;28;20050;-70
2022/11/26 05:34:06;;;;;;;81.60;26.65;;;;;;;;;;4969185;28;20563;-70
2022/11/26 05:36:33;;;;;;;82.25;28.42;;;;;;;;;;4966474;28;20042;-70
2022/11/26 05:38:59;;;;;;;100.18;31.77;;;;;;;;;;4949894;28;20516;-70
2022/11/26 05:41:25;;;;;;;80.22;30.63;;;;;;;;;;4971093;28;20038;-70
2022/11/26 05:43:51;;;;;;;84.00;31.92;;;;;;;;;;4970850;28;20042;-70
2022/11/26 05:46:17;;;;;;;90.53;31.17;;;;;;;;;;4966561;28;20686;-70
2022/11/26 05:48:44;;;;;;;76.57;30.38;;;;;;;;;;4978003;28;20026;-70
2022/11/26 05:51:10;;;;;;;81.07;30.17;;;;;;;;;;4975699;28;20035;-70
2022/11/26 05:53:36;;;;;;;89.18;30.83;;;;;;;;;;4969208;28;20034;-70
2022/11/26 05:56:02;;;;;;;92.07;30.52;;;;;;;;;;4963360;28;20018;-70
2022/11/26 05:58:28;;;;;;;97.15;31.02;;;;;;;;;;4968663;28;20385;-70
2022/11/26 06:00:54;;;;;;;92.50;31.73;;;;;;;;;;4969270;28;20046;-70
2022/11/26 06:03:21;;;;;;;92.75;32.95;;;;;;;;;;4968273;28;20034;-70
2022/11/26 06:05:47;;;;;;;108.18;32.65;;;;;;;;;;4970307;28;20035;-70
2022/11/26 06:08:13;;;;;;;97.45;32.53;;;;;;;;;;4971455;28;20457;-70
2022/11/26 06:10:41;;;;;;;107.57;33.35;;;;;;;;;;4970962;28;20093;-70
2022/11/26 06:13:07;;;;;;;93.53;32.38;;;;;;;;;;4971580;28;20492;-69
2022/11/26 06:15:34;;;;;;;108.82;35.80;;;;;;;;;;4967646;28;20126;-70
2022/11/26 06:18:00;;;;;;;103.55;32.42;;;;;;;;;;4967608;28;20027;-70
2022/11/26 06:20:26;;;;;;;94.15;31.80;;;;;;;;;;4976112;28;20117;-70
2022/11/26 06:22:52;;;;;;;95.78;33.72;;;;;;;;;;4965158;28;20485;-70
2022/11/26 06:25:18;;;;;;;97.30;32.88;;;;;;;;;;4967469;28;20054;-70
2022/11/26 06:27:44;;;;;;;92.20;32.55;;;;;;;;;;4968073;28;20035;-70
2022/11/26 06:30:11;;;;;;;90.53;32.35;;;;;;;;;;4966161;28;20039;-70
2022/11/26 06:32:37;;;;;;;119.43;33.75;;;;;;;;;;4947864;28;20067;-69
2022/11/26 06:35:03;;;;;;;95.13;32.28;;;;;;;;;;4930464;29;20086;-69
2022/11/26 06:37:29;;;;;;;90.95;33.97;;;;;;;;;;4927745;28;20494;-69
2022/11/26 06:39:55;;;;;;;85.50;31.30;;;;;;;;;;4926841;29;20090;-69
2022/11/26 06:42:21;;;;;;;88.53;31.33;;;;;;;;;;4932004;29;20040;-69
2022/11/26 06:44:47;;;;;;;87.28;34.55;;;;;;;;;;4929598;29;20083;-69
2022/11/26 06:47:13;;;;;;;99.00;33.05;;;;;;;;;;4929014;29;20033;-70
2022/11/26 06:49:39;;;;;;;104.32;33.65;;;;;;;;;;4931730;29;20454;-69
2022/11/26 06:52:06;;;;;;;95.35;33.13;;;;;;;;;;4929848;29;20408;-69
2022/11/26 06:54:34;;;;;;;115.22;34.67;;;;;;;;;;4929046;29;20038;-69
2022/11/26 06:57:00;;;;;;;104.30;31.80;;;;;;;;;;4928717;29;20032;-69
2022/11/26 06:59:27;;;;;;;103.22;34.72;;;;;;;;;;4924131;29;20556;-69
2022/11/26 07:01:53;;;;;;;109.05;34.28;;;;;;;;;;4943019;28;20478;-69
2022/11/26 07:04:19;;;;;;;99.57;32.45;;;;;;;;;;4926954;29;20062;-69
2022/11/26 07:06:45;;;;;;;104.72;32.38;;;;;;;;;;4926737;28;20036;-69
2022/11/26 07:09:11;;;;;;;97.07;33.05;;;;;;;;;;4929315;28;20035;-69
2022/11/26 07:11:38;;;;;;;109.25;31.55;;;;;;;;;;4923159;29;20453;-69
2022/11/26 07:14:05;;;;;;;86.82;28.38;;;;;;;;;;4925627;29;20114;-69
2022/11/26 07:16:33;;;;;;;83.80;31.35;;;;;;;;;;4914955;29;20051;-69
2022/11/26 07:19:00;;;;;;;90.57;29.60;;;;;;;;;;4925026;29;20028;-69
2022/11/26 07:21:26;;;;;;;96.03;29.05;;;;;;;;;;4940795;28;20436;-69
2022/11/26 07:23:53;;;;;;;88.28;28.73;;;;;;;;;;4925453;29;20693;-69
2022/11/26 07:26:20;;;;;;;89.15;28.02;;;;;;;;;;4928147;29;20035;-69
2022/11/26 07:28:46;;;;;;;81.82;29.17;;;;;;;;;;4926811;29;20469;-69
2022/11/26 07:31:14;;;;;;;82.57;28.83;;;;;;;;;;4925963;29;20147;-69
2022/11/26 07:33:41;;;;;;;78.90;28.60;;;;;;;;;;4960947;28;20109;-69
2022/11/26 07:36:08;;;;;;;81.60;27.58;;;;;;;;;;4958924;28;20034;-69
2022/11/26 07:38:34;;;;;;;89.45;27.10;;;;;;;;;;4957197;28;20045;-69
2022/11/26 07:41:05;;;;;;;76.53;27.70;;;;;;;;;;4971758;28;20059;-68
2022/11/26 07:43:33;;;;;;;65.82;19.23;;;;;;;;;;4970000;28;20579;-69
2022/11/26 07:46:04;;;;;;;78.30;25.27;;;;;;;;;;4968143;28;20110;-69
2022/11/26 07:48:31;;;;;;;81.53;25.08;;;;;;;;;;4971064;28;20023;-69
2022/11/26 07:50:57;;;;;;;77.03;26.20;;;;;;;;;;4971492;28;20031;-69
2022/11/26 07:53:24;;;;;;;75.18;27.17;;;;;;;;;;4970144;28;20031;-69
2022/11/26 07:55:50;;;;;;;89.55;27.20;;;;;;;;;;4968432;28;20050;-69
2022/11/26 07:58:16;;;;;;;83.07;25.33;;;;;;;;;;4969623;28;20030;-69
2022/11/26 08:00:42;;;;;;;70.80;25.67;;;;;;;;;;4968478;28;20102;-69
2022/11/26 08:03:08;;;;;;;87.18;29.23;;;;;;;;;;4971501;28;20498;-69
2022/11/26 08:05:34;;;;;;;71.03;24.75;;;;;;;;;;4970384;28;20035;-68
2022/11/26 08:08:00;;;;;;;85.32;24.55;;;;;;;;;;4969910;28;20054;-69
2022/11/26 08:10:26;;;;;;;88.72;24.55;;;;;;;;;;4969924;28;20031;-68
2022/11/26 08:12:52;;;;;;;80.22;24.08;;;;;;;;;;4963539;28;20042;-68
2022/11/26 08:15:18;;;;;;;84.28;24.50;;;;;;;;;;4952342;29;20035;-70
2022/11/26 08:17:44;;;;;;;77.38;24.90;;;;;;;;;;4951892;29;20488;-69
2022/11/26 08:20:10;;;;;;;77.97;24.42;;;;;;;;;;4966136;28;20034;-69
2022/11/26 08:22:36;;;;;;;77.13;23.38;;;;;;;;;;4965888;28;20044;-69
2022/11/26 08:25:02;;;;;;;74.40;22.13;;;;;;;;;;4970778;28;20034;-68
2022/11/26 08:27:31;;;;;;;61.60;19.70;;;;;;;;;;4968068;28;20373;-68
2022/11/26 08:29:57;;;;;;;63.88;22.10;;;;;;;;;;4953130;28;20026;-68
2022/11/26 08:32:23;;;;;;;66.97;20.25;;;;;;;;;;4970743;28;20050;-69
2022/11/26 08:34:49;;;;;;;80.55;22.08;;;;;;;;;;4953379;28;20105;-69
2022/11/26 08:37:15;;;;;;;78.43;20.83;;;;;;;;;;4970262;28;20039;-68
2022/11/26 08:39:41;;;;;;;77.88;21.27;;;;;;;;;;4969342;28;20054;-68
2022/11/26 08:42:07;;;;;;;74.40;21.45;;;;;;;;;;4969518;28;20046;-69
2022/11/26 08:44:33;;;;;;;68.82;22.60;;;;;;;;;;4969157;28;20535;-69
2022/11/26 08:46:59;;;;;;;67.47;21.42;;;;;;;;;;4970634;28;20043;-68
2022/11/26 08:49:25;;;;;;;75.88;21.33;;;;;;;;;;4969173;28;20456;-68
2022/11/26 08:51:54;;;;;;;60.50;20.88;;;;;;;;;;4951818;28;20883;-69
2022/11/26 08:54:20;;;;;;;73.68;19.63;;;;;;;;;;4969268;28;20035;-69
2022/11/26 08:56:46;;;;;;;75.82;21.20;;;;;;;;;;4969433;28;20118;-68
2022/11/26 08:59:12;;;;;;;62.60;18.75;;;;;;;;;;4970292;28;20061;-69
2022/11/26 09:01:38;;;;;;;60.67;16.75;;;;;;;;;;4974323;28;20030;-69
2022/11/26 09:04:05;;;;;;;65.75;20.27;;;;;;;;;;4974553;28;20047;-68
2022/11/26 09:06:31;;;;;;;66.78;19.30;;;;;;;;;;4973563;28;20412;-69
2022/11/26 09:09:14;;;;;;;70.68;20.75;;;;;;;;;;4966216;28;20082;-69
2022/11/26 09:11:40;;;;;;;61.03;18.45;;;;;;;;;;4967362;28;20043;-69
2022/11/26 09:14:06;;;;;;;67.35;18.27;;;;;;;;;;4960973;28;20046;-68
2022/11/26 09:16:32;;;;;;;82.65;20.13;;;;;;;;;;4969538;28;20038;-68
2022/11/26 09:18:59;;;;;;;77.45;18.40;;;;;;;;;;4974631;28;20031;-68
2022/11/26 09:21:25;;;;;;;56.38;18.27;;;;;;;;;;4972025;28;20050;-67
2022/11/26 09:23:51;;;;;;;51.83;18.00;;;;;;;;;;4971820;28;20031;-68
2022/11/26 09:26:20;;;;;;;54.55;17.42;;;;;;;;;;4967463;28;20027;-69
2022/11/26 09:28:47;;;;;;;52.10;16.80;;;;;;;;;;4967800;28;20034;-69
2022/11/26 09:31:13;;;;;;;48.95;16.73;;;;;;;;;;4969402;28;20143;-69
2022/11/26 09:33:39;;;;;;;45.70;16.25;;;;;;;;;;4973972;28;20063;-69
2022/11/26 09:36:06;;;;;;;48.80;16.48;;;;;;;;;;4974122;28;20049;-69
2022/11/26 09:38:32;;;;;;;53.30;17.45;;;;;;;;;;4974307;28;20023;-69
2022/11/26 09:41:10;;;;;;;54.97;16.58;;;;;;;;;;4971491;28;20566;-69
2022/11/26 09:43:43;;;;;;;51.78;17.13;;;;;;;;;;4964878;28;20042;-69
2022/11/26 09:46:11;;;;;;;53.05;17.13;;;;;;;;;;4948960;28;20037;-69
2022/11/26 09:48:38;;;;;;;60.55;17.20;;;;;;;;;;4950651;28;20412;-69
2022/11/26 09:51:07;;;;;;;55.47;17.40;;;;;;;;;;4968945;28;20017;-69
2022/11/26 09:53:39;;;;;;;58.10;18.02;;;;;;;;;;4971087;28;20034;-68
2022/11/26 09:56:09;;;;;;;51.10;17.42;;;;;;;;;;4962570;28;20151;-69
2022/11/26 09:58:56;;;;;;;55.70;16.05;;;;;;;;;;4972841;28;20104;-68
2022/11/26 10:01:22;;;;;;;56.95;17.35;;;;;;;;;;4970181;28;20447;-69
2022/11/26 10:03:48;;;;;;;58.17;17.15;;;;;;;;;;4973472;28;20039;-69
2022/11/26 10:06:33;;;;;;;45.47;15.40;;;;;;;;;;4962356;28;20031;-69
2022/11/26 10:09:14;;;;;;;54.80;17.35;;;;;;;;;;4973788;28;20026;-69
2022/11/26 10:11:47;;;;;;;47.80;15.18;;;;;;;;;;4962939;28;20771;-69
2022/11/26 10:14:13;;;;;;;49.08;17.27;;;;;;;;;;4968248;28;20500;-68
2022/11/26 10:16:45;;;;;;;56.35;15.65;;;;;;;;;;4961869;28;20043;-68
2022/11/26 10:19:11;;;;;;;57.33;15.88;;;;;;;;;;4973353;28;20050;-68
2022/11/26 10:21:41;;;;;;;54.72;15.95;;;;;;;;;;4969879;28;20448;-68
2022/11/26 10:24:14;;;;;;;57.25;16.98;;;;;;;;;;4970192;28;20030;-68
2022/11/26 10:26:40;;;;;;;55.50;16.50;;;;;;;;;;4969944;28;20031;-68
2022/11/26 10:29:26;;;;;;;47.42;14.27;;;;;;;;;;4972655;28;20019;-68
2022/11/26 10:32:01;;;;;;;54.20;15.00;;;;;;;;;;4965869;28;20047;-67
2022/11/26 10:34:39;;;;;;;37.00;14.32;;;;;;;;;;4937870;29;20019;-68
2022/11/26 10:37:05;;;;;;;45.25;13.50;;;;;;;;;;4959295;28;20039;-68
2022/11/26 10:39:31;;;;;;;42.47;13.50;;;;;;;;;;4953894;29;20051;-68
2022/11/26 10:42:02;;;;;;;42.72;16.38;;;;;;;;;;4958082;28;20078;-68
2022/11/26 10:44:30;;;;;;;56.95;15.15;;;;;;;;;;4968206;28;20030;-69
2022/11/26 10:46:56;;;;;;;38.83;13.15;;;;;;;;;;4970350;28;20023;-69
2022/11/26 10:49:23;;;;;;;42.80;13.93;;;;;;;;;;4972932;28;20039;-69
2022/11/26 10:51:50;;;;;;;44.83;14.43;;;;;;;;;;4964133;28;20114;-69
2022/11/26 10:54:37;;;;;;;43.95;13.85;;;;;;;;;;4971088;28;20057;-69
2022/11/26 10:57:09;;;;;;;46.00;14.60;;;;;;;;;;4968090;28;20354;-69
2022/11/26 10:59:51;;;;;;;49.83;14.25;;;;;;;;;;4967511;28;20043;-69
2022/11/26 11:02:20;;;;;;;41.10;13.68;;;;;;;;;;4970112;28;20085;-69
2022/11/26 11:04:50;;;;;;;36.50;12.57;;;;;;;;;;4955053;28;20023;-69
2022/11/26 11:07:37;;;;;;;39.47;13.07;;;;;;;;;;4955775;28;20381;-69
2022/11/26 11:10:05;;;;;;;39.75;12.70;;;;;;;;;;4953917;28;20030;-69
2022/11/26 11:12:31;;;;;;;44.17;14.60;;;;;;;;;;4965574;28;20038;-70
2022/11/26 11:15:12;;;;;;;49.70;13.43;;;;;;;;;;4960153;28;20031;-69
2022/11/26 11:17:39;;;;;;;48.40;13.90;;;;;;;;;;4959289;28;20437;-69
2022/11/26 11:20:14;;;;;;;44.47;14.18;;;;;;;;;;4970483;28;20027;-69
2022/11/26 11:22:44;;;;;;;44.42;13.50;;;;;;;;;;4963410;28;20046;-69
2022/11/26 11:25:30;;;;;;;47.83;12.35;;;;;;;;;;4953365;28;20045;-69
2022/11/26 11:28:06;;;;;;;44.78;12.05;;;;;;;;;;4970908;28;20489;-69
2022/11/26 11:30:36;;;;;;;35.58;12.23;;;;;;;;;;4970808;28;20034;-69
2022/11/26 11:33:29;;;;;;;41.38;12.48;;;;;;;;;;4952876;28;20109;-69
2022/11/26 11:36:05;;;;;;;47.00;12.15;;;;;;;;;;4966214;28;20027;-69
2022/11/26 11:38:33;;;;;;;45.47;11.45;;;;;;;;;;4971464;28;20122;-69
2022/11/26 11:41:01;;;;;;;31.50;10.45;;;;;;;;;;4971790;28;20101;-69
2022/11/26 11:43:27;;;;;;;44.40;11.70;;;;;;;;;;4970687;28;20034;-69
2022/11/26 11:45:57;;;;;;;43.20;11.25;;;;;;;;;;4967455;28;20089;-70
2022/11/26 11:48:42;;;;;;;47.80;10.95;;;;;;;;;;4969193;28;20031;-69
2022/11/26 11:51:08;;;;;;;35.58;11.23;;;;;;;;;;4963936;28;20034;-69
2022/11/26 11:53:55;;;;;;;42.13;11.18;;;;;;;;;;4967815;28;20034;-69
2022/11/26 11:56:39;;;;;;;42.08;11.07;;;;;;;;;;4971381;28;20042;-69
2022/11/26 11:59:36;;;;;;;42.33;10.98;;;;;;;;;;4967185;28;20042;-69
2022/11/26 12:02:37;;;;;;;40.15;11.40;;;;;;;;;;4950380;28;20047;-69
2022/11/26 12:05:13;;;;;;;40.35;10.35;;;;;;;;;;4911762;29;20451;-69
2022/11/26 12:07:41;;;;;;;35.10;10.27;;;;;;;;;;4948947;28;20412;-69
2022/11/26 12:10:12;;;;;;;40.22;11.02;;;;;;;;;;4970619;28;20048;-69
2022/11/26 12:12:43;;;;;;;37.15;9.70;;;;;;;;;;4970276;28;20058;-69
2022/11/26 12:15:09;;;;;;;;;;;;;;;;;;4968382;28;20049;-69
2022/11/26 12:17:38;;;;;;;39.50;10.18;;;;;;;;;;4971221;28;20383;-69
2022/11/26 12:20:14;;;;;;;36.38;9.00;;;;;;;;;;4969896;28;20027;-69
2022/11/26 12:23:09;;;;;;;35.53;9.55;;;;;;;;;;4970671;28;20451;-69
2022/11/26 12:25:37;;;;;;;34.28;9.20;;;;;;;;;;4929920;28;20048;-69
2022/11/26 12:28:17;;;;;;;36.05;9.70;;;;;;;;;;4970687;28;20189;-69
2022/11/26 12:30:51;;;;;;;35.42;9.52;;;;;;;;;;4964462;28;20034;-69
2022/11/26 12:33:23;;;;;;;36.03;9.23;;;;;;;;;;4962623;28;20043;-69
2022/11/26 12:35:58;;;;;;;34.83;10.02;;;;;;;;;;4970266;28;20034;-69
2022/11/26 12:38:29;;;;;;;31.13;10.95;;;;;;;;;;4965912;28;20033;-69
2022/11/26 12:40:59;;;;;;;37.38;10.57;;;;;;;;;;4970977;28;20411;-69
2022/11/26 12:43:45;;;;;;;29.65;9.32;;;;;;;;;;4966701;28;20039;-70
2022/11/26 12:46:33;;;;;;;30.75;9.10;;;;;;;;;;4940029;28;20560;-69
2022/11/26 12:48:59;;;;;;;31.58;9.73;;;;;;;;;;4951709;29;20035;-70
2022/11/26 12:51:34;;;;;;;35.70;10.38;;;;;;;;;;4963453;28;20038;-71
2022/11/26 12:54:04;;;;;;;38.17;10.10;;;;;;;;;;4965549;28;21350;-70
2022/11/26 12:56:40;;;;;;;36.43;10.50;;;;;;;;;;4962933;28;20027;-70
2022/11/26 12:59:25;;;;;;;28.92;10.57;;;;;;;;;;4956350;28;20287;-70
2022/11/26 13:01:51;;;;;;;38.75;11.57;;;;;;;;;;4963613;28;20039;-70
2022/11/26 13:04:18;;;;;;;31.85;11.27;;;;;;;;;;4965551;28;20023;-70
2022/11/26 13:07:06;;;;;;;35.85;10.40;;;;;;;;;;4954062;28;20031;-70
2022/11/26 13:09:44;;;;;;;31.05;9.02;;;;;;;;;;4954708;28;20081;-70
2022/11/26 13:12:15;;;;;;;33.35;9.63;;;;;;;;;;4968235;28;20035;-70
2022/11/26 13:14:44;;;;;;;31.80;8.57;;;;;;;;;;4965968;28;20054;-70
2022/11/26 13:17:14;;;;;;;33.42;8.65;;;;;;;;;;4960639;28;20085;-70
2022/11/26 13:19:45;;;;;;;26.70;7.90;;;;;;;;;;4951076;29;20038;-71
2022/11/26 13:22:37;;;;;;;23.63;8.20;;;;;;;;;;4954175;28;20070;-70
2022/11/26 13:25:22;;;;;;;27.60;7.72;;;;;;;;;;4962031;28;20282;-70
2022/11/26 13:27:54;;;;;;;26.17;8.15;;;;;;;;;;4969153;28;20432;-71
2022/11/26 13:30:24;;;;;;;29.10;7.38;;;;;;;;;;4965312;28;20019;-70
2022/11/26 13:32:58;;;;;;;30.63;8.93;;;;;;;;;;4962006;28;20074;-70
2022/11/26 13:35:37;;;;;;;33.05;9.18;;;;;;;;;;4961333;28;20030;-71
2022/11/26 13:38:23;;;;;;;33.72;9.07;;;;;;;;;;4965990;28;20102;-70
2022/11/26 13:40:55;;;;;;;32.67;7.72;;;;;;;;;;4965596;28;20046;-69
2022/11/26 13:43:54;;;;;;;33.72;8.75;;;;;;;;;;4967465;28;20295;-69
2022/11/26 13:46:23;;;;;;;33.60;9.38;;;;;;;;;;4969220;28;20034;-70
2022/11/26 13:48:55;;;;;;;37.03;8.45;;;;;;;;;;4971005;28;20027;-70
2022/11/26 13:51:21;;;;;;;27.30;8.43;;;;;;;;;;4974534;28;20097;-71
2022/11/26 13:54:03;;;;;;;30.58;8.57;;;;;;;;;;4972290;28;20464;-69
2022/11/26 13:56:31;;;;;;;31.67;8.07;;;;;;;;;;4965690;28;20472;-70
2022/11/26 13:59:00;;;;;;;28.88;9.15;;;;;;;;;;4970268;28;20066;-69
2022/11/26 14:01:27;;;;;;;33.75;8.35;;;;;;;;;;4973633;28;20110;-70
2022/11/26 14:03:53;;;;;;;27.15;8.13;;;;;;;;;;4973033;28;20098;-70
2022/11/26 14:06:19;;;;;;;35.13;8.27;;;;;;;;;;4971569;28;20119;-70
2022/11/26 14:08:47;;;;;;;28.10;8.77;;;;;;;;;;4957941;28;20089;-70
2022/11/26 14:11:33;;;;;;;25.75;8.07;;;;;;;;;;4960399;28;20042;-70
2022/11/26 14:14:17;;;;;;;31.40;9.23;;;;;;;;;;4973283;28;20117;-70
2022/11/26 14:17:04;;;;;;;25.40;9.27;;;;;;;;;;4964232;28;20042;-70
2022/11/26 14:19:39;;;;;;;38.05;9.45;;;;;;;;;;4970607;28;20031;-70
2022/11/26 14:22:25;;;;;;;33.22;9.63;;;;;;;;;;4972816;28;20034;-70
2022/11/26 14:24:52;;;;;;;27.77;8.82;;;;;;;;;;4972712;28;20027;-70
2022/11/26 14:27:21;;;;;;;36.60;11.18;;;;;;;;;;4968899;28;20019;-69
2022/11/26 14:29:49;;;;;;;30.45;9.50;;;;;;;;;;4972377;28;20579;-69
2022/11/26 14:32:19;;;;;;;37.08;9.82;;;;;;;;;;4969560;28;20058;-70